Dades meteomassalio
Diari Summary for Octubre 24, 2017 Units:  Metric    English   Both
« Previous Day
Next Day »
Diari Semanal Mensual Anual Personalitzat
  Maxima: Minima: Mijana:
Temperatura: 24.4 °C 3.9 °C 12.1 °C
Rosada: 2.7 °C -4.5 °C -1.2 °C
Humitat: 66 % 18 % 44 %
Velocitat del vent: 18.5 km/h 0.0 km/h 1.7 km/h
Racha vent: 18.5 km/h - -
Vent:- - West
Pressio: 1028.7 hPa 1024.6 hPa -
Pluja: 0.0 mm    
Historical Graphs
 
 
Tabular Data for Octubre 24, 2017
Time Temperature Dew Point Pressure Wind Wind Speed Wind Gust Humidity Rainfall Rate (Hourly) solar Conditions
00:04 6.7 °C -1.7 °C 1027.7 hPa Calm     55 % 0.0 mm 0.0 W/m2 CLR
00:09 6.7 °C -2.5 °C 1027.7 hPa Calm     52 % 0.0 mm 0.0 W/m2 CLR
00:14 6.7 °C -1.5 °C 1028.0 hPa Calm     56 % 0.0 mm 0.0 W/m2 CLR
00:19 6.7 °C -1.3 °C 1028.0 hPa Calm     57 % 0.0 mm 0.0 W/m2 CLR
00:24 6.7 °C -1.3 °C 1028.0 hPa Calm     57 % 0.0 mm 0.0 W/m2 CLR
00:29 6.7 °C -1.5 °C 1027.7 hPa Calm     56 % 0.0 mm 0.0 W/m2 CLR
00:34 6.1 °C -2.0 °C 1028.0 hPa Calm     56 % 0.0 mm 0.0 W/m2 CLR
00:39 6.1 °C -1.8 °C 1028.0 hPa Calm     57 % 0.0 mm 0.0 W/m2 CLR
00:44 6.1 °C -2.3 °C 1028.0 hPa Calm     55 % 0.0 mm 0.0 W/m2 CLR
00:49 6.1 °C -2.0 °C 1028.0 hPa Calm     56 % 0.0 mm 0.0 W/m2 CLR
00:54 6.1 °C -2.3 °C 1027.7 hPa Calm     55 % 0.0 mm 0.0 W/m2 CLR
00:59 6.1 °C -2.0 °C 1028.0 hPa Calm     56 % 0.0 mm 0.0 W/m2 CLR
01:04 6.1 °C -1.8 °C 1028.0 hPa Calm     57 % 0.0 mm 0.0 W/m2 CLR
01:09 6.1 °C -1.8 °C 1028.0 hPa Calm     57 % 0.0 mm 0.0 W/m2 CLR
01:14 6.1 °C -1.6 °C 1027.7 hPa Calm     58 % 0.0 mm 0.0 W/m2 CLR
01:19 6.1 °C -1.6 °C 1028.0 hPa Calm     58 % 0.0 mm 0.0 W/m2 CLR
01:24 6.1 °C -1.8 °C 1028.0 hPa Calm     57 % 0.0 mm 0.0 W/m2 CLR
01:29 6.1 °C -1.3 °C 1028.0 hPa Calm     59 % 0.0 mm 0.0 W/m2 CLR
01:34 6.1 °C -1.6 °C 1028.0 hPa Calm     58 % 0.0 mm 0.0 W/m2 CLR
01:36 6.1 °C -1.6 °C 1028.0 hPa Calm     58 % 0.0 mm 0.0 W/m2 CLR
01:41 5.6 °C -2.3 °C 1028.0 hPa Calm     57 % 0.0 mm 0.0 W/m2 CLR
01:46 5.6 °C -2.3 °C 1028.0 hPa Calm     57 % 0.0 mm 0.0 W/m2 CLR
01:56 5.6 °C -2.6 °C 1028.0 hPa Calm     56 % 0.0 mm 0.0 W/m2 CLR
01:57 5.6 °C -2.8 °C 1028.0 hPa Calm     55 % 0.0 mm 0.0 W/m2 CLR
02:02 6.1 °C -2.3 °C 1028.0 hPa Calm     55 % 0.0 mm 0.0 W/m2 CLR
02:07 6.1 °C -2.3 °C 1028.0 hPa Calm     55 % 0.0 mm 0.0 W/m2 CLR
02:12 6.1 °C -2.3 °C 1028.0 hPa Calm     55 % 0.0 mm 0.0 W/m2 CLR
02:17 6.7 °C -1.5 °C 1028.0 hPa Calm     56 % 0.0 mm 0.0 W/m2 CLR
02:22 6.1 °C -1.6 °C 1028.0 hPa Calm     58 % 0.0 mm 0.0 W/m2 CLR
02:27 6.1 °C -1.6 °C 1028.3 hPa Calm     58 % 0.0 mm 0.0 W/m2 CLR
02:32 6.1 °C -1.6 °C 1028.0 hPa Calm     58 % 0.0 mm 0.0 W/m2 CLR
02:37 6.1 °C -1.6 °C 1028.0 hPa Calm     58 % 0.0 mm 0.0 W/m2 CLR
02:42 6.1 °C -1.3 °C 1028.0 hPa Calm     59 % 0.0 mm 0.0 W/m2 CLR
02:47 6.1 °C -1.3 °C 1028.0 hPa Calm     59 % 0.0 mm 0.0 W/m2 CLR
02:52 5.6 °C -1.8 °C 1028.0 hPa Calm     59 % 0.0 mm 0.0 W/m2 CLR
02:57 5.6 °C -1.8 °C 1028.0 hPa Calm     59 % 0.0 mm 0.0 W/m2 CLR
03:02 5.6 °C -1.6 °C 1028.0 hPa Calm     60 % 0.0 mm 0.0 W/m2 CLR
03:07 5.0 °C -2.1 °C 1028.0 hPa Calm     60 % 0.0 mm 0.0 W/m2 CLR
03:12 5.6 °C -1.6 °C 1028.0 hPa Calm     60 % 0.0 mm 0.0 W/m2 CLR
03:17 5.6 °C -1.6 °C 1028.0 hPa Calm     60 % 0.0 mm 0.0 W/m2 CLR
03:22 5.6 °C -1.4 °C 1028.0 hPa Calm     61 % 0.0 mm 0.0 W/m2 CLR
03:27 5.0 °C -1.7 °C 1028.0 hPa Calm     62 % 0.0 mm 0.0 W/m2 CLR
03:32 5.0 °C -1.7 °C 1028.0 hPa Calm     62 % 0.0 mm 0.0 W/m2 CLR
03:37 5.0 °C -1.9 °C 1028.0 hPa Calm     61 % 0.0 mm 0.0 W/m2 CLR
03:42 5.0 °C -1.9 °C 1028.0 hPa Calm     61 % 0.0 mm 0.0 W/m2 CLR
03:47 5.0 °C -1.9 °C 1028.0 hPa Calm     61 % 0.0 mm 0.0 W/m2 CLR
03:52 5.0 °C -1.9 °C 1028.0 hPa Calm     61 % 0.0 mm 0.0 W/m2 CLR
03:57 5.6 °C -1.4 °C 1028.0 hPa Calm     61 % 0.0 mm 0.0 W/m2 CLR
04:02 5.6 °C -1.2 °C 1028.0 hPa Calm     62 % 0.0 mm 0.0 W/m2 CLR
04:07 5.0 °C -1.4 °C 1027.7 hPa Calm     63 % 0.0 mm 0.0 W/m2 CLR
04:12 5.0 °C -1.3 °C 1027.7 hPa Calm     64 % 0.0 mm 0.0 W/m2 CLR
04:17 4.4 °C -1.8 °C 1028.0 hPa Calm     64 % 0.0 mm 0.0 W/m2 CLR
04:22 5.0 °C -1.3 °C 1028.0 hPa Calm     64 % 0.0 mm 0.0 W/m2 CLR
04:27 5.0 °C -1.3 °C 1028.0 hPa Calm     64 % 0.0 mm 0.0 W/m2 CLR
04:32 5.0 °C -1.1 °C 1028.0 hPa Calm     65 % 0.0 mm 0.0 W/m2 CLR
04:37 5.6 °C -0.3 °C 1028.0 hPa Calm     66 % 0.0 mm 0.0 W/m2 CLR
04:42 5.0 °C -0.8 °C 1028.0 hPa Calm     66 % 0.0 mm 0.0 W/m2 CLR
04:47 5.0 °C -0.8 °C 1028.0 hPa Calm     66 % 0.0 mm 0.0 W/m2 CLR
04:52 5.0 °C -0.8 °C 1028.0 hPa Calm     66 % 0.0 mm 0.0 W/m2 CLR
04:57 5.0 °C -0.8 °C 1028.0 hPa Calm     66 % 0.0 mm 0.0 W/m2 CLR
05:02 5.0 °C -1.1 °C 1028.0 hPa Calm     65 % 0.0 mm 0.0 W/m2 CLR
05:07 5.0 °C -1.3 °C 1028.0 hPa Calm     64 % 0.0 mm 0.0 W/m2 CLR
05:13 5.6 °C -0.9 °C 1028.0 hPa Calm     63 % 0.0 mm 0.0 W/m2 CLR
05:18 5.0 °C -1.7 °C 1028.0 hPa Calm     62 % 0.0 mm 0.0 W/m2 CLR
05:21 5.0 °C -1.9 °C 1028.0 hPa Calm     61 % 0.0 mm 0.0 W/m2 CLR
05:26 5.0 °C -1.9 °C 1028.0 hPa Calm     61 % 0.0 mm 0.0 W/m2 CLR
05:27 5.0 °C -1.9 °C 1028.0 hPa Calm     61 % 0.0 mm 0.0 W/m2 CLR
05:32 5.0 °C -1.7 °C 1028.0 hPa Calm     62 % 0.0 mm 0.0 W/m2 CLR
05:37 5.0 °C -1.7 °C 1028.0 hPa Calm     62 % 0.0 mm 0.0 W/m2 CLR
05:42 5.6 °C -1.2 °C 1028.0 hPa Calm     62 % 0.0 mm 0.0 W/m2 CLR
05:47 5.6 °C -1.4 °C 1028.0 hPa Calm     61 % 0.0 mm 0.0 W/m2 CLR
05:52 5.6 °C -1.4 °C 1028.0 hPa Calm     61 % 0.0 mm 0.0 W/m2 CLR
05:57 5.6 °C -1.4 °C 1028.0 hPa Calm     61 % 0.0 mm 0.0 W/m2 CLR
06:02 5.0 °C -1.9 °C 1028.0 hPa Calm     61 % 0.0 mm 0.0 W/m2 CLR
06:07 4.4 °C -2.4 °C 1028.0 hPa Calm     61 % 0.0 mm 0.0 W/m2 CLR
06:12 5.0 °C -1.7 °C 1028.0 hPa Calm     62 % 0.0 mm 0.0 W/m2 CLR
06:17 5.0 °C -1.9 °C 1028.0 hPa Calm     61 % 0.0 mm 0.0 W/m2 CLR
06:22 4.4 °C -2.4 °C 1028.0 hPa Calm     61 % 0.0 mm 0.0 W/m2 CLR
06:27 4.4 °C -2.4 °C 1028.0 hPa Calm     61 % 0.0 mm 0.0 W/m2 CLR
06:28 4.4 °C -2.4 °C 1028.0 hPa Calm     61 % 0.0 mm 0.0 W/m2 CLR
06:33 4.4 °C -2.7 °C 1028.0 hPa Calm     60 % 0.0 mm 0.0 W/m2 CLR
06:38 4.4 °C -2.4 °C 1028.0 hPa Calm     61 % 0.0 mm 0.0 W/m2 CLR
06:43 4.4 °C -2.4 °C 1028.0 hPa Calm     61 % 0.0 mm 0.0 W/m2 CLR
06:48 4.4 °C -2.4 °C 1028.0 hPa Calm     61 % 0.0 mm 0.0 W/m2 CLR
06:53 4.4 °C -2.4 °C 1028.0 hPa Calm     61 % 0.0 mm 0.0 W/m2 CLR
06:58 4.4 °C -2.4 °C 1028.0 hPa Calm     61 % 0.0 mm 0.0 W/m2 CLR
07:03 4.4 °C -2.2 °C 1028.0 hPa Calm     62 % 0.0 mm 0.0 W/m2 CLR
07:08 4.4 °C -2.0 °C 1028.0 hPa Calm     63 % 0.0 mm 0.0 W/m2 CLR
07:13 4.4 °C -2.0 °C 1028.0 hPa Calm     63 % 0.0 mm 0.0 W/m2 CLR
07:18 4.4 °C -2.0 °C 1027.7 hPa Calm     63 % 0.0 mm 0.0 W/m2 CLR
07:23 3.9 °C -2.5 °C 1027.7 hPa Calm     63 % 0.0 mm 0.0 W/m2 CLR
07:28 3.9 °C -2.5 °C 1027.7 hPa Calm     63 % 0.0 mm 0.0 W/m2 CLR
07:33 4.4 °C -2.0 °C 1028.0 hPa Calm     63 % 0.0 mm 0.0 W/m2 CLR
07:38 4.4 °C -1.8 °C 1028.0 hPa Calm     64 % 0.0 mm 0.0 W/m2 CLR
07:43 3.9 °C -2.3 °C 1028.0 hPa Calm     64 % 0.0 mm 0.0 W/m2 CLR
07:48 4.4 °C -2.0 °C 1028.0 hPa Calm     63 % 0.0 mm 0.0 W/m2 CLR
07:53 4.4 °C -2.0 °C 1028.0 hPa Calm     63 % 0.0 mm 0.0 W/m2 CLR
07:58 5.0 °C -1.4 °C 1028.0 hPa Calm     63 % 0.0 mm 0.0 W/m2 CLR
08:03 4.4 °C -1.8 °C 1028.0 hPa Calm     64 % 0.0 mm 0.0 W/m2 CLR
08:08 4.4 °C -1.8 °C 1028.0 hPa Calm     64 % 0.0 mm 0.0 W/m2 CLR
08:13 5.0 °C -1.4 °C 1028.0 hPa Calm     63 % 0.0 mm 0.0 W/m2 OVC
08:18 5.0 °C -1.3 °C 1028.0 hPa Calm     64 % 0.0 mm 5.0 W/m2 OVC
08:23 4.4 °C -2.0 °C 1028.0 hPa Calm     63 % 0.0 mm 7.0 W/m2 OVC
08:28 4.4 °C -2.0 °C 1028.0 hPa Calm     63 % 0.0 mm 9.0 W/m2 BKN
08:33 4.4 °C -2.0 °C 1028.0 hPa Calm     63 % 0.0 mm 11.0 W/m2 BKN
08:38 4.4 °C -1.8 °C 1028.0 hPa Calm     64 % 0.0 mm 12.0 W/m2 BKN
08:43 4.4 °C -2.0 °C 1028.0 hPa Calm     63 % 0.0 mm 14.0 W/m2 BKN
08:48 5.0 °C -1.4 °C 1028.0 hPa Calm     63 % 0.0 mm 18.0 W/m2 BKN
08:53 5.0 °C -1.9 °C 1028.0 hPa Calm     61 % 0.0 mm 25.0 W/m2 BKN
08:58 5.0 °C -1.9 °C 1028.0 hPa Calm     61 % 0.0 mm 33.0 W/m2 BKN
09:03 5.0 °C -1.9 °C 1028.0 hPa Calm     61 % 0.0 mm 49.0 W/m2 SCT
09:08 5.6 °C -1.6 °C 1028.0 hPa Calm     60 % 0.0 mm 58.0 W/m2 SCT
09:13 5.6 °C -2.1 °C 1028.3 hPa Calm     58 % 0.0 mm 76.0 W/m2 FEW
09:18 5.6 °C -1.8 °C 1028.3 hPa Calm     59 % 0.0 mm 91.0 W/m2 CLR
09:23 5.6 °C -2.3 °C 1028.3 hPa Calm     57 % 0.0 mm 98.0 W/m2 FEW
09:29 5.6 °C -3.3 °C 1028.3 hPa Calm     53 % 0.0 mm 123.0 W/m2 CLR
09:34 6.1 °C -2.8 °C 1028.3 hPa Calm     53 % 0.0 mm 107.0 W/m2 CLR
09:39 6.7 °C -1.7 °C 1028.3 hPa Calm     55 % 0.0 mm 149.0 W/m2 CLR
09:44 6.7 °C -2.2 °C 1028.3 hPa Calm     53 % 0.0 mm 169.0 W/m2 CLR
09:49 7.2 °C -2.3 °C 1028.7 hPa Calm     51 % 0.0 mm 185.0 W/m2 CLR
09:54 7.2 °C -2.8 °C 1028.3 hPa Calm     49 % 0.0 mm 214.0 W/m2 CLR
09:59 7.8 °C -2.3 °C 1028.7 hPa Calm     49 % 0.0 mm 209.0 W/m2 CLR
10:09 8.9 °C -1.6 °C 1028.7 hPa Calm     48 % 0.0 mm 265.0 W/m2 CLR
10:14 8.9 °C -2.1 °C 1028.7 hPa Calm     46 % 0.0 mm 269.0 W/m2 CLR
10:19 9.4 °C -1.9 °C 1028.7 hPa Calm     45 % 0.0 mm 288.0 W/m2 CLR
10:24 9.4 °C -2.2 °C 1028.7 hPa Calm     44 % 0.0 mm 304.0 W/m2 CLR
10:29 10.0 °C -1.7 °C 1028.7 hPa Calm     44 % 0.0 mm 297.0 W/m2 CLR
10:34 10.6 °C -1.5 °C 1028.7 hPa Calm     43 % 0.0 mm 309.0 W/m2 CLR
10:39 11.1 °C -1.0 °C 1028.7 hPa Calm     43 % 0.0 mm 329.0 W/m2 CLR
10:44 11.7 °C -1.2 °C 1028.7 hPa Calm     41 % 0.0 mm 355.0 W/m2 CLR
10:49 12.2 °C -1.0 °C 1028.7 hPa Calm     40 % 0.0 mm 369.0 W/m2 CLR
10:54 12.8 °C -0.8 °C 1028.3 hPa Calm     39 % 0.0 mm 380.0 W/m2 CLR
10:59 13.9 °C 0.2 °C 1028.3 hPa Calm     39 % 0.0 mm 392.0 W/m2 CLR
11:04 14.4 °C 0.7 °C 1028.3 hPa Calm     39 % 0.0 mm 401.0 W/m2 CLR
11:09 14.4 °C -0.1 °C 1028.3 hPa Calm     37 % 0.0 mm 415.0 W/m2 CLR
11:14 15.0 °C 0.4 °C 1028.3 hPa Calm     37 % 0.0 mm 425.0 W/m2 CLR
11:19 15.6 °C 0.1 °C 1028.3 hPa North 5.6 km/h 5.6 km/h 35 % 0.0 mm 436.0 W/m2 CLR
11:24 16.1 °C 0.2 °C 1028.3 hPa NNW 5.6 km/h 5.6 km/h 34 % 0.0 mm 443.0 W/m2 CLR
11:29 16.7 °C 0.7 °C 1028.3 hPa North 8.0 km/h 8.0 km/h 34 % 0.0 mm 455.0 W/m2 CLR
11:34 16.7 °C -0.1 °C 1028.3 hPa NNW 5.6 km/h 5.6 km/h 32 % 0.0 mm 468.0 W/m2 CLR
11:39 17.2 °C 0.8 °C 1028.3 hPa Calm     33 % 0.0 mm 478.0 W/m2 CLR
11:44 17.8 °C 0.8 °C 1028.0 hPa NNW 5.6 km/h 5.6 km/h 32 % 0.0 mm 487.0 W/m2 CLR
11:49 18.3 °C 0.9 °C 1028.0 hPa NW 5.6 km/h 5.6 km/h 31 % 0.0 mm 496.0 W/m2 CLR
11:54 18.3 °C 0.4 °C 1028.0 hPa North 1.9 km/h   30 % 0.0 mm 504.0 W/m2 CLR
11:59 18.9 °C 1.4 °C 1028.0 hPa Calm     31 % 0.0 mm 513.0 W/m2 CLR
12:04 19.4 °C 0.9 °C 1028.0 hPa West 3.7 km/h 3.7 km/h 29 % 0.0 mm 520.0 W/m2 CLR
12:09 19.4 °C -1.7 °C 1028.0 hPa SW 14.8 km/h 14.8 km/h 24 % 0.0 mm 531.0 W/m2 CLR
12:14 20.0 °C -1.2 °C 1028.0 hPa SW 16.1 km/h 16.1 km/h 24 % 0.0 mm 538.0 W/m2 CLR
12:19 20.6 °C -1.3 °C 1028.0 hPa WSW 9.3 km/h 9.3 km/h 23 % 0.0 mm 547.0 W/m2 CLR
12:24 21.1 °C -0.8 °C 1028.0 hPa SW 11.1 km/h 11.1 km/h 23 % 0.0 mm 541.0 W/m2 CLR
12:29 21.7 °C -1.0 °C 1027.7 hPa WSW 18.5 km/h 18.5 km/h 22 % 0.0 mm 547.0 W/m2 CLR
12:34 21.7 °C -1.0 °C 1028.0 hPa SW 7.4 km/h 7.4 km/h 22 % 0.0 mm 564.0 W/m2 CLR
12:39 21.7 °C -1.0 °C 1027.7 hPa SSW 7.4 km/h 7.4 km/h 22 % 0.0 mm 573.0 W/m2 CLR
12:44 22.2 °C -0.6 °C 1027.7 hPa SW 18.5 km/h 18.5 km/h 22 % 0.0 mm 587.0 W/m2 CLR
12:49 22.2 °C -1.2 °C 1027.7 hPa SSW 11.1 km/h 11.1 km/h 21 % 0.0 mm 570.0 W/m2 CLR
12:54 22.2 °C -1.2 °C 1027.7 hPa WSW 13.0 km/h 13.0 km/h 21 % 0.0 mm 534.0 W/m2 CLR
12:59 22.2 °C -0.6 °C 1027.7 hPa WSW 5.6 km/h 5.6 km/h 22 % 0.0 mm 578.0 W/m2 CLR
13:04 22.2 °C -0.6 °C 1027.7 hPa WSW 12.9 km/h 12.9 km/h 22 % 0.0 mm 592.0 W/m2 CLR
13:09 22.2 °C -1.2 °C 1027.3 hPa WSW 11.1 km/h 11.1 km/h 21 % 0.0 mm 598.0 W/m2 CLR
13:14 22.8 °C -0.7 °C 1027.3 hPa Calm     21 % 0.0 mm 601.0 W/m2 CLR
13:19 22.8 °C -2.1 °C 1027.3 hPa SW 5.6 km/h 5.6 km/h 19 % 0.0 mm 605.0 W/m2 CLR
13:24 22.8 °C -2.1 °C 1027.3 hPa West 13.0 km/h 13.0 km/h 19 % 0.0 mm 601.0 W/m2 CLR
13:29 22.8 °C -2.1 °C 1027.3 hPa SW 9.3 km/h 9.3 km/h 19 % 0.0 mm 610.0 W/m2 CLR
13:34 22.8 °C -2.1 °C 1027.0 hPa West 7.4 km/h 7.4 km/h 19 % 0.0 mm 622.0 W/m2 CLR
13:39 22.8 °C -2.1 °C 1027.0 hPa WNW 7.4 km/h 7.4 km/h 19 % 0.0 mm 606.0 W/m2 CLR
13:44 22.8 °C -2.1 °C 1027.0 hPa WSW 11.1 km/h 11.1 km/h 19 % 0.0 mm 584.0 W/m2 CLR
13:49 22.8 °C -2.1 °C 1027.0 hPa WSW 11.1 km/h 11.1 km/h 19 % 0.0 mm 628.0 W/m2 CLR
13:54 22.8 °C -2.1 °C 1026.6 hPa WNW 6.4 km/h 6.4 km/h 19 % 0.0 mm 594.0 W/m2 CLR
13:59 23.3 °C -2.3 °C 1026.6 hPa SSW 5.6 km/h 5.6 km/h 18 % 0.0 mm 517.0 W/m2 CLR
14:03 23.9 °C -1.9 °C 1026.6 hPa West 6.4 km/h 6.4 km/h 18 % 0.0 mm 554.0 W/m2 CLR
14:08 23.3 °C -1.6 °C 1026.3 hPa SW 5.6 km/h 5.6 km/h 19 % 0.0 mm 526.0 W/m2 CLR
14:13 23.3 °C -1.6 °C 1026.3 hPa Calm     19 % 0.0 mm 540.0 W/m2 CLR
14:18 23.9 °C -0.4 °C 1026.3 hPa SW 9.3 km/h 9.3 km/h 20 % 0.0 mm 584.0 W/m2 CLR
14:23 23.9 °C -0.4 °C 1026.3 hPa SW 5.6 km/h 7.4 km/h 20 % 0.0 mm 506.0 W/m2 CLR
14:28 23.9 °C -1.2 °C 1026.3 hPa SW 13.0 km/h 13.0 km/h 19 % 0.0 mm 512.0 W/m2 CLR
14:33 23.9 °C -1.2 °C 1026.0 hPa SSW 7.4 km/h 7.4 km/h 19 % 0.0 mm 506.0 W/m2 CLR
14:38 23.9 °C -1.2 °C 1026.0 hPa Calm     19 % 0.0 mm 468.0 W/m2 CLR
14:43 24.4 °C -0.7 °C 1026.0 hPa WNW 9.7 km/h 9.7 km/h 19 % 0.0 mm 577.0 W/m2 CLR
14:48 24.4 °C -0.7 °C 1026.0 hPa Calm     19 % 0.0 mm 587.0 W/m2 CLR
14:53 23.9 °C -0.4 °C 1025.6 hPa WSW 5.6 km/h 5.6 km/h 20 % 0.0 mm 517.0 W/m2 CLR
14:58 23.9 °C -0.4 °C 1025.6 hPa SSW 5.6 km/h 5.6 km/h 20 % 0.0 mm 552.0 W/m2 CLR
15:03 23.9 °C -1.2 °C 1025.6 hPa WNW 7.4 km/h 7.4 km/h 19 % 0.0 mm 552.0 W/m2 CLR
15:08 23.9 °C -1.2 °C 1025.6 hPa WSW 9.3 km/h 9.3 km/h 19 % 0.0 mm 531.0 W/m2 CLR
15:13 23.9 °C -1.2 °C 1025.3 hPa WNW 3.7 km/h 3.7 km/h 19 % 0.0 mm 496.0 W/m2 CLR
15:18 23.9 °C -1.2 °C 1025.3 hPa WNW 1.9 km/h 1.9 km/h 19 % 0.0 mm 552.0 W/m2 CLR
15:23 23.9 °C -1.2 °C 1025.3 hPa NW 8.0 km/h 8.0 km/h 19 % 0.0 mm 531.0 W/m2 CLR
15:28 23.9 °C -0.4 °C 1025.3 hPa WNW 11.1 km/h 11.1 km/h 20 % 0.0 mm 487.0 W/m2 CLR
15:33 23.9 °C -0.4 °C 1025.3 hPa NNW 5.6 km/h   20 % 0.0 mm 483.0 W/m2 CLR
15:38 23.9 °C -0.4 °C 1024.9 hPa NW 7.4 km/h 7.4 km/h 20 % 0.0 mm 418.0 W/m2 CLR
15:43 23.9 °C -0.4 °C 1025.3 hPa WNW 5.6 km/h 5.6 km/h 20 % 0.0 mm 378.0 W/m2 CLR
15:48 23.9 °C -0.4 °C 1024.9 hPa NW 7.4 km/h 7.4 km/h 20 % 0.0 mm 373.0 W/m2 CLR
15:53 23.9 °C 0.2 °C 1024.9 hPa West 9.3 km/h 9.3 km/h 21 % 0.0 mm 360.0 W/m2 CLR
15:58 23.9 °C 0.2 °C 1024.9 hPa NNW 5.6 km/h 5.6 km/h 21 % 0.0 mm 327.0 W/m2 CLR
16:03 23.3 °C -0.2 °C 1024.9 hPa WNW 7.4 km/h 7.4 km/h 21 % 0.0 mm 406.0 W/m2 CLR
16:08 23.3 °C -0.2 °C 1024.9 hPa WNW 13.0 km/h 13.0 km/h 21 % 0.0 mm 380.0 W/m2 CLR
16:13 23.9 °C 0.9 °C 1024.9 hPa West 5.6 km/h   22 % 0.0 mm 439.0 W/m2 CLR
16:18 23.9 °C 0.2 °C 1024.9 hPa NW 7.4 km/h 7.4 km/h 21 % 0.0 mm 431.0 W/m2 CLR
16:23 23.9 °C 0.9 °C 1024.9 hPa WNW 7.4 km/h 7.4 km/h 22 % 0.0 mm 406.0 W/m2 CLR
16:28 23.9 °C 0.9 °C 1024.9 hPa WNW 9.3 km/h 9.3 km/h 22 % 0.0 mm 345.0 W/m2 CLR
16:33 23.9 °C 0.9 °C 1024.9 hPa West 5.6 km/h 5.6 km/h 22 % 0.0 mm 327.0 W/m2 CLR
16:38 23.9 °C 0.9 °C 1024.9 hPa West 4.8 km/h 4.8 km/h 22 % 0.0 mm 401.0 W/m2 CLR
16:43 23.9 °C 0.9 °C 1024.6 hPa WNW 5.6 km/h 5.6 km/h 22 % 0.0 mm 380.0 W/m2 CLR
16:48 23.9 °C 1.5 °C 1024.6 hPa Calm     23 % 0.0 mm 320.0 W/m2 CLR
16:53 23.9 °C 1.5 °C 1024.6 hPa Calm     23 % 0.0 mm 260.0 W/m2 CLR
16:58 23.3 °C 2.2 °C 1024.6 hPa WNW 3.7 km/h 3.7 km/h 25 % 0.0 mm 271.0 W/m2 CLR
17:03 23.3 °C 2.7 °C 1024.6 hPa Calm     26 % 0.0 mm 271.0 W/m2 CLR
17:08 23.3 °C 2.2 °C 1024.6 hPa WSW 5.6 km/h 5.6 km/h 25 % 0.0 mm 288.0 W/m2 CLR
17:13 23.3 °C 1.0 °C 1024.6 hPa Calm     23 % 0.0 mm 274.0 W/m2 CLR
17:18 23.3 °C 1.6 °C 1024.6 hPa Calm     24 % 0.0 mm 214.0 W/m2 CLR
17:23 23.3 °C 2.2 °C 1024.6 hPa Calm     25 % 0.0 mm 193.0 W/m2 CLR
17:28 22.8 °C 1.2 °C 1024.6 hPa Calm     24 % 0.0 mm 193.0 W/m2 CLR
17:33 22.8 °C 1.7 °C 1024.6 hPa NNW 1.9 km/h   25 % 0.0 mm 179.0 W/m2 CLR
17:34 22.8 °C 1.2 °C 1024.6 hPa Calm     24 % 0.0 mm 171.0 W/m2 CLR
17:39 22.8 °C 0.6 °C 1024.6 hPa Calm     23 % 0.0 mm 155.0 W/m2 CLR
17:44 22.2 °C 0.1 °C 1024.6 hPa Calm     23 % 0.0 mm 148.0 W/m2 CLR
17:49 22.2 °C 0.7 °C 1024.6 hPa Calm     24 % 0.0 mm 116.0 W/m2 CLR
17:54 21.7 °C 0.2 °C 1024.6 hPa Calm     24 % 0.0 mm 102.0 W/m2 CLR
17:59 21.1 °C 0.3 °C 1024.6 hPa Calm     25 % 0.0 mm 84.0 W/m2 CLR
18:04 20.6 °C -0.2 °C 1024.6 hPa Calm     25 % 0.0 mm 104.0 W/m2 CLR
18:09 19.4 °C -2.3 °C 1024.6 hPa Calm     23 % 0.0 mm 83.0 W/m2 FEW
18:14 18.9 °C -2.7 °C 1024.6 hPa Calm     23 % 0.0 mm 81.0 W/m2 FEW
18:19 18.3 °C -2.6 °C 1024.6 hPa Calm     24 % 0.0 mm 76.0 W/m2 FEW
18:24 18.3 °C -2.1 °C 1024.6 hPa Calm     25 % 0.0 mm 63.0 W/m2 FEW
18:29 17.8 °C -2.6 °C 1024.6 hPa Calm     25 % 0.0 mm 54.0 W/m2 SCT
18:34 17.2 °C -3.0 °C 1024.6 hPa Calm     25 % 0.0 mm 56.0 W/m2 SCT
18:39 17.2 °C -3.6 °C 1024.6 hPa Calm     24 % 0.0 mm 39.0 W/m2 BKN
18:44 16.7 °C -4.0 °C 1024.9 hPa Calm     24 % 0.0 mm 28.0 W/m2 BKN
18:49 16.1 °C -4.5 °C 1024.9 hPa Calm     24 % 0.0 mm 23.0 W/m2 BKN
18:54 15.6 °C -4.4 °C 1024.9 hPa Calm     25 % 0.0 mm 18.0 W/m2 BKN
18:59 15.0 °C -4.4 °C 1024.9 hPa Calm     26 % 0.0 mm 12.0 W/m2 BKN
19:04 15.0 °C -4.4 °C 1024.9 hPa Calm     26 % 0.0 mm 11.0 W/m2 BKN
19:09 15.0 °C -3.9 °C 1024.9 hPa Calm     27 % 0.0 mm 9.0 W/m2 OVC
19:14 15.0 °C -3.4 °C 1024.9 hPa Calm     28 % 0.0 mm 7.0 W/m2 OVC
19:19 15.0 °C -2.9 °C 1024.9 hPa Calm     29 % 0.0 mm 0.0 W/m2 CLR
19:25 15.0 °C -2.9 °C 1024.9 hPa Calm     29 % 0.0 mm 0.0 W/m2 CLR
19:30 15.0 °C -2.9 °C 1024.9 hPa Calm     29 % 0.0 mm 0.0 W/m2 CLR
19:35 15.0 °C -2.0 °C 1024.9 hPa Calm     31 % 0.0 mm 0.0 W/m2 CLR
19:40 14.4 °C -1.2 °C 1024.9 hPa Calm     34 % 0.0 mm 0.0 W/m2 CLR
19:45 14.4 °C -1.2 °C 1025.3 hPa Calm     34 % 0.0 mm 0.0 W/m2 CLR
19:50 13.9 °C -1.3 °C 1025.3 hPa Calm     35 % 0.0 mm 0.0 W/m2 CLR
19:55 13.9 °C -1.3 °C 1025.3 hPa Calm     35 % 0.0 mm 0.0 W/m2 CLR
20:00 13.3 °C -1.4 °C 1025.3 hPa Calm     36 % 0.0 mm 0.0 W/m2 CLR
20:05 13.3 °C -1.4 °C 1025.3 hPa Calm     36 % 0.0 mm 0.0 W/m2 CLR
20:10 12.8 °C -1.6 °C 1025.3 hPa Calm     37 % 0.0 mm 0.0 W/m2 CLR
20:15 12.8 °C -1.6 °C 1025.3 hPa Calm     37 % 0.0 mm 0.0 W/m2 CLR
20:20 12.2 °C -1.3 °C 1025.3 hPa Calm     39 % 0.0 mm 0.0 W/m2 CLR
20:25 12.2 °C -1.0 °C 1025.3 hPa Calm     40 % 0.0 mm 0.0 W/m2 CLR
20:26 12.2 °C -1.0 °C 1025.3 hPa Calm     40 % 0.0 mm 0.0 W/m2 CLR
20:30 12.2 °C -0.7 °C 1025.3 hPa Calm     41 % 0.0 mm 0.0 W/m2 CLR
20:35 11.7 °C -0.8 °C 1025.3 hPa Calm     42 % 0.0 mm 0.0 W/m2 CLR
20:40 11.7 °C -0.5 °C 1025.6 hPa Calm     43 % 0.0 mm 0.0 W/m2 CLR
20:45 11.1 °C -1.0 °C 1025.6 hPa Calm     43 % 0.0 mm 0.0 W/m2 CLR
20:50 10.6 °C -1.2 °C 1025.6 hPa Calm     44 % 0.0 mm 0.0 W/m2 CLR
20:55 10.6 °C -1.2 °C 1025.6 hPa Calm     44 % 0.0 mm 0.0 W/m2 CLR
21:00 10.0 °C -1.7 °C 1025.6 hPa Calm     44 % 0.0 mm 0.0 W/m2 CLR
21:05 10.0 °C -1.7 °C 1025.6 hPa Calm     44 % 0.0 mm 0.0 W/m2 CLR
21:10 9.4 °C -1.9 °C 1025.6 hPa Calm     45 % 0.0 mm 0.0 W/m2 CLR
21:15 9.4 °C -1.9 °C 1025.6 hPa Calm     45 % 0.0 mm 0.0 W/m2 CLR
21:20 9.4 °C -1.6 °C 1025.6 hPa Calm     46 % 0.0 mm 0.0 W/m2 CLR
21:25 9.4 °C -1.3 °C 1025.6 hPa Calm     47 % 0.0 mm 0.0 W/m2 CLR
21:30 8.9 °C -1.8 °C 1025.6 hPa Calm     47 % 0.0 mm 0.0 W/m2 CLR
21:35 8.9 °C -1.8 °C 1025.6 hPa Calm     47 % 0.0 mm 0.0 W/m2 CLR
21:40 8.9 °C -1.8 °C 1025.6 hPa Calm     47 % 0.0 mm 0.0 W/m2 CLR
21:45 8.3 °C -2.3 °C 1025.6 hPa Calm     47 % 0.0 mm 0.0 W/m2 CLR
21:50 8.3 °C -2.3 °C 1025.6 hPa Calm     47 % 0.0 mm 0.0 W/m2 CLR
21:55 8.3 °C -2.1 °C 1025.6 hPa Calm     48 % 0.0 mm 0.0 W/m2 CLR
22:00 8.3 °C -2.1 °C 1025.6 hPa Calm     48 % 0.0 mm 0.0 W/m2 CLR
22:05 8.3 °C -1.8 °C 1026.0 hPa Calm     49 % 0.0 mm 0.0 W/m2 CLR
22:10 8.3 °C -1.5 °C 1026.0 hPa Calm     50 % 0.0 mm 0.0 W/m2 CLR
22:15 8.3 °C -1.2 °C 1026.0 hPa Calm     51 % 0.0 mm 0.0 W/m2 CLR
22:20 8.3 °C -1.2 °C 1026.0 hPa Calm     51 % 0.0 mm 0.0 W/m2 CLR
22:25 8.9 °C -0.7 °C 1026.0 hPa Calm     51 % 0.0 mm 0.0 W/m2 CLR
22:30 10.0 °C 0.6 °C 1026.0 hPa Calm     52 % 0.0 mm 0.0 W/m2 CLR
22:35 10.0 °C 0.6 °C 1026.0 hPa Calm     52 % 0.0 mm 0.0 W/m2 CLR
22:40 9.4 °C 0.1 °C 1026.0 hPa Calm     52 % 0.0 mm 0.0 W/m2 CLR
22:45 8.9 °C -0.2 °C 1026.0 hPa Calm     53 % 0.0 mm 0.0 W/m2 CLR
22:51 8.9 °C -0.2 °C 1026.0 hPa Calm     53 % 0.0 mm 0.0 W/m2 CLR
22:56 8.3 °C -0.4 °C 1026.0 hPa Calm     54 % 0.0 mm 0.0 W/m2 CLR
23:01 8.3 °C -0.4 °C 1026.0 hPa Calm     54 % 0.0 mm 0.0 W/m2 CLR
23:06 8.3 °C -0.2 °C 1026.0 hPa Calm     55 % 0.0 mm 0.0 W/m2 CLR
23:11 8.9 °C 0.3 °C 1026.3 hPa Calm     55 % 0.0 mm 0.0 W/m2 CLR
23:16 8.9 °C 0.3 °C 1026.3 hPa Calm     55 % 0.0 mm 0.0 W/m2 CLR
23:21 8.9 °C 0.3 °C 1026.3 hPa Calm     55 % 0.0 mm 0.0 W/m2 CLR
23:26 8.9 °C 0.6 °C 1026.3 hPa Calm     56 % 0.0 mm 0.0 W/m2 CLR
23:31 8.3 °C 0.1 °C 1026.3 hPa Calm     56 % 0.0 mm 0.0 W/m2 CLR
23:36 8.3 °C 0.1 °C 1026.3 hPa Calm     56 % 0.0 mm 0.0 W/m2 CLR
23:41 8.9 °C 0.6 °C 1026.3 hPa Calm     56 % 0.0 mm 0.0 W/m2 CLR
23:46 8.9 °C 0.8 °C 1026.3 hPa Calm     57 % 0.0 mm 0.0 W/m2 CLR
23:51 8.9 °C 0.8 °C 1026.6 hPa Calm     57 % 0.0 mm 0.0 W/m2 CLR
23:56 8.3 °C 0.3 °C 1026.3 hPa Calm     57 % 0.0 mm 0.0 W/m2 CLR
Lo Temps de Massalio
Compliments of Weather Underground - 1.25 mb